Terminal Aerodrome Forecast
Issued by NWS Hastings, NE

Home | Current Version | Previous Version | Text Only | Print | Product List | Glossary On
Versions: 1 2 3 4 5 6 7 8 9 10 11 12 13 14 15 16 17 18 19 20 21 22 23 24 25 26 27 28
582
FTUS43 KGID 291727
TAFGRI
TAF
KGRI 291727Z 2918/3018 06006KT P6SM VCTS SCT030 BKN060CB
     FM300000 09005KT P6SM SCT060
     FM300800 13004KT 6SM BR SCT100
     FM301400 13008KT P6SM SCT100=

USA.gov is the U.S. government's official web portal to all federal, state and local government web resources and services.